createdAt,value
2019-02-19T00:02:33.256Z,3.32
2019-02-19T00:05:20.529Z,3.14
2019-02-19T00:08:16.159Z,3.01
2019-02-19T00:33:01.334Z,2.78
2019-02-19T00:35:48.780Z,2.68
2019-02-19T00:48:02.591Z,2.30
2019-02-19T00:50:52.304Z,2.21
2019-02-19T00:53:54.335Z,2.12
2019-02-19T00:59:48.420Z,1.92
2019-02-19T01:08:48.784Z,1.74
2019-02-19T01:11:35.751Z,2.45
2019-02-19T01:14:23.298Z,1.96
2019-02-19T01:29:37.603Z,2.15
2019-02-19T01:32:24.719Z,2.13
2019-02-19T01:38:18.984Z,2.08
2019-02-19T01:41:06.389Z,2.08
2019-02-19T01:43:53.547Z,2.08
2019-02-19T01:46:41.695Z,2.09
2019-02-19T01:49:29.293Z,2.10
2019-02-19T02:04:41.753Z,2.25
2019-02-19T02:07:43.899Z,2.29
2019-02-19T02:10:45.776Z,2.33
2019-02-19T02:16:54.504Z,2.39
2019-02-19T02:19:42.022Z,2.44
2019-02-19T02:22:29.406Z,2.50
2019-02-19T02:28:37.714Z,2.58
2019-02-19T02:31:25.957Z,2.62
2019-02-19T02:34:13.318Z,2.63
2019-02-19T02:40:14.276Z,2.68
2019-02-19T03:04:56.421Z,2.71
2019-02-19T03:07:43.586Z,2.68
2019-02-19T03:13:37.879Z,2.60
2019-02-19T03:16:25.119Z,2.56
2019-02-19T03:31:37.617Z,2.48
2019-02-19T03:34:27.251Z,2.43
2019-02-19T03:37:28.861Z,2.38
2019-02-19T03:40:16.092Z,2.34
2019-02-19T03:43:03.298Z,2.33
2019-02-19T03:45:50.337Z,2.33
2019-02-19T03:48:37.354Z,2.35
2019-02-19T03:51:24.959Z,2.40
2019-02-19T04:00:25.505Z,2.50
2019-02-19T04:03:12.772Z,2.57
2019-02-19T04:06:00.166Z,2.67
2019-02-19T04:15:15.550Z,2.74
2019-02-19T04:18:04.207Z,3.39
2019-02-19T04:24:11.907Z,2.91
2019-02-19T04:26:59.348Z,2.86
2019-02-19T04:29:47.060Z,3.52
2019-02-19T04:32:34.278Z,3.12
2019-02-19T04:51:00.014Z,3.12
2019-02-19T05:00:14.003Z,3.25
2019-02-19T05:03:01.984Z,3.27
2019-02-19T05:05:49.868Z,3.26
2019-02-19T05:08:36.934Z,3.23
2019-02-19T05:11:31.595Z,3.20
2019-02-19T05:14:21.216Z,3.12
2019-02-19T05:17:08.521Z,3.04
2019-02-19T05:19:55.967Z,2.98
2019-02-19T05:22:43.280Z,2.92
2019-02-19T05:25:30.625Z,2.86
2019-02-19T05:28:17.847Z,3.51
2019-02-19T05:31:07.542Z,3.74
2019-02-19T05:33:54.841Z,3.19
2019-02-19T05:36:42.264Z,3.06
2019-02-19T05:42:36.644Z,2.86
2019-02-19T05:45:23.785Z,2.80
2019-02-19T05:48:10.905Z,2.77
2019-02-19T05:50:58.863Z,2.75
2019-02-19T05:53:46.449Z,2.73
2019-02-19T05:56:34.894Z,2.73
2019-02-19T05:59:23.652Z,2.74
2019-02-19T06:02:11.075Z,2.76
2019-02-19T06:04:58.480Z,2.78
2019-02-19T06:07:45.818Z,2.81
2019-02-19T06:10:35.989Z,2.84
2019-02-19T06:16:44.082Z,2.88
2019-02-19T06:22:39.535Z,2.99
2019-02-19T06:25:34.516Z,3.06
2019-02-19T06:28:22.248Z,3.14
2019-02-19T06:34:15.943Z,3.31
2019-02-19T06:37:17.780Z,3.36
2019-02-19T06:40:07.577Z,3.40
2019-02-19T06:42:55.189Z,3.46
2019-02-19T06:45:42.436Z,3.51
2019-02-19T06:51:50.640Z,3.61
2019-02-19T06:54:37.830Z,3.68
2019-02-19T06:57:25.101Z,3.74
2019-02-19T07:00:12.399Z,3.82
2019-02-19T07:03:00.047Z,4.61
2019-02-19T07:05:47.402Z,4.21
2019-02-19T07:08:50.740Z,4.18
2019-02-19T07:11:40.283Z,4.21
2019-02-19T07:14:43.727Z,4.27
2019-02-19T07:20:37.566Z,4.32
2019-02-19T07:23:25.046Z,4.39
2019-02-19T07:26:12.511Z,4.50
2019-02-19T07:28:59.693Z,4.60
2019-02-19T07:31:47.242Z,4.73
2019-02-19T07:34:34.508Z,4.86
2019-02-19T07:37:21.931Z,4.99
2019-02-19T07:40:09.278Z,5.07
2019-02-19T07:42:56.726Z,5.12
2019-02-19T07:45:43.952Z,5.19
2019-02-19T07:48:38.973Z,6.06
2019-02-19T07:51:26.217Z,5.61
2019-02-19T07:54:14.589Z,5.60
2019-02-19T07:57:02.142Z,5.64
2019-02-19T08:00:04.057Z,5.70
2019-02-19T08:02:51.419Z,5.78
2019-02-19T08:05:38.610Z,5.87
2019-02-19T08:11:31.863Z,6.16
2019-02-19T08:14:19.072Z,6.30
2019-02-19T08:17:06.210Z,7.32
2019-02-19T08:19:53.153Z,6.87
2019-02-19T08:22:40.399Z,6.90
2019-02-19T08:25:30.088Z,7.87
2019-02-19T08:31:24.339Z,7.39
2019-02-19T08:34:12.760Z,7.47
2019-02-19T08:37:00.016Z,7.56
2019-02-19T08:39:48.356Z,8.58
2019-02-19T08:42:35.774Z,8.03
2019-02-19T08:45:31.290Z,7.99
2019-02-19T08:48:18.350Z,7.99
2019-02-19T08:51:05.546Z,8.00
2019-02-19T08:53:53.661Z,8.03
2019-02-19T08:56:40.994Z,8.07
2019-02-19T08:59:35.764Z,8.16
2019-02-19T09:17:55.495Z,8.64
2019-02-19T09:20:42.649Z,8.74
2019-02-19T09:23:29.672Z,9.85
2019-02-19T09:26:17.190Z,9.31
2019-02-19T09:29:04.563Z,9.35
2019-02-19T09:32:06.335Z,9.45
2019-02-19T09:34:53.585Z,9.61
2019-02-19T09:37:55.905Z,9.73
2019-02-19T09:40:43.221Z,9.87
2019-02-19T09:46:45.240Z,10.17
2019-02-19T09:49:32.296Z,10.26
2019-02-19T09:52:20.321Z,10.45
2019-02-19T09:55:07.644Z,10.64
2019-02-19T09:58:01.769Z,10.84
2019-02-19T10:00:49.423Z,11.04
2019-02-19T10:03:36.692Z,11.31
2019-02-19T10:06:38.114Z,11.46
2019-02-19T10:12:39.647Z,11.25
2019-02-19T10:15:34.410Z,11.15
2019-02-19T10:18:21.506Z,10.96
2019-02-19T10:24:22.962Z,10.53
2019-02-19T10:27:12.453Z,10.42
2019-02-19T10:36:27.531Z,10.26
2019-02-19T10:39:14.650Z,11.28
2019-02-19T10:42:01.667Z,10.66
2019-02-19T10:44:50.038Z,10.60
2019-02-19T10:47:37.361Z,11.57
2019-02-19T10:50:24.349Z,11.89
2019-02-19T10:53:11.713Z,11.15
2019-02-19T10:55:58.837Z,10.95
2019-02-19T10:58:53.648Z,10.79
2019-02-19T11:01:40.923Z,10.71
2019-02-19T11:04:27.884Z,10.70
2019-02-19T11:07:15.461Z,10.72
2019-02-19T11:10:02.780Z,10.75
2019-02-19T11:19:02.404Z,10.91
2019-02-19T11:21:49.490Z,10.74
2019-02-19T11:24:36.788Z,10.69
2019-02-19T11:27:31.451Z,10.65
2019-02-19T11:30:20.248Z,10.50
2019-02-19T11:33:06.705Z,10.40
2019-02-19T11:35:54.844Z,10.34
2019-02-19T11:41:47.759Z,10.34
2019-02-19T11:47:41.072Z,10.35
2019-02-19T11:50:28.378Z,10.30
2019-02-19T11:53:16.056Z,10.29
2019-02-19T11:56:03.318Z,10.26
2019-02-19T11:58:50.547Z,10.25
2019-02-19T12:01:52.727Z,10.23
2019-02-19T12:04:54.433Z,10.26
2019-02-19T12:07:41.395Z,10.33
2019-02-19T12:10:28.376Z,10.37
2019-02-19T12:13:15.831Z,11.39
2019-02-19T12:16:10.518Z,10.76
2019-02-19T12:18:57.986Z,10.69
2019-02-19T12:21:45.284Z,10.64
2019-02-19T12:24:32.681Z,10.63
2019-02-19T12:30:27.590Z,11.65
2019-02-19T12:36:28.584Z,10.77
2019-02-19T12:39:15.770Z,10.75
2019-02-19T12:42:03.074Z,10.72
2019-02-19T12:44:53.059Z,10.71
2019-02-19T12:47:40.599Z,10.69
2019-02-19T12:50:28.230Z,10.71
2019-02-19T12:56:21.594Z,10.87
2019-02-19T12:59:08.909Z,10.94
2019-02-19T13:01:56.157Z,11.08
2019-02-19T13:07:49.772Z,11.24
2019-02-19T13:10:38.035Z,11.26
2019-02-19T13:13:26.091Z,11.30
2019-02-19T13:16:13.475Z,11.35
2019-02-19T13:19:03.526Z,11.32
2019-02-19T13:21:50.829Z,12.41
2019-02-19T13:24:51.956Z,11.75
2019-02-19T13:27:39.175Z,11.60
2019-02-19T13:39:45.550Z,11.54
2019-02-19T13:58:18.993Z,11.85
2019-02-19T14:07:19.418Z,12.03
2019-02-19T14:10:06.738Z,12.01
2019-02-19T14:12:54.304Z,12.00
2019-02-19T14:15:41.605Z,12.00
2019-02-19T14:18:37.346Z,11.97
2019-02-19T14:21:29.041Z,11.98
2019-02-19T14:24:46.565Z,12.98
2019-02-19T14:27:34.771Z,12.24
2019-02-19T14:37:04.806Z,12.06
2019-02-19T14:40:10.162Z,12.05
2019-02-19T14:46:10.876Z,12.07
2019-02-19T14:52:36.721Z,12.06
2019-02-19T14:55:24.327Z,12.05
2019-02-19T15:01:33.068Z,12.27
2019-02-19T15:07:52.518Z,12.51
2019-02-19T15:17:01.239Z,12.97
2019-02-19T15:19:57.550Z,12.89
2019-02-19T15:22:44.811Z,12.93
2019-02-19T15:25:45.643Z,12.92
2019-02-19T15:28:35.701Z,12.89
2019-02-19T15:31:46.377Z,12.70
2019-02-19T15:34:39.828Z,12.47
2019-02-19T15:37:33.694Z,12.33
2019-02-19T15:43:57.558Z,11.99
2019-02-19T15:46:51.235Z,11.87
2019-02-19T15:52:57.513Z,11.88
2019-02-19T15:56:02.915Z,11.64
2019-02-19T15:58:54.240Z,11.40
2019-02-19T16:01:41.852Z,11.24
2019-02-19T16:10:52.344Z,10.83
2019-02-19T16:13:58.268Z,10.70
2019-02-19T16:17:03.707Z,10.56
2019-02-19T16:23:04.369Z,10.51
2019-02-19T16:25:52.705Z,10.30
2019-02-19T16:31:48.008Z,9.88
2019-02-19T16:35:04.190Z,9.70
2019-02-19T16:37:54.985Z,9.50
2019-02-19T16:40:46.212Z,9.32
2019-02-19T16:43:37.327Z,9.18
2019-02-19T16:46:27.363Z,9.05
2019-02-19T16:49:29.241Z,8.90
2019-02-19T16:52:36.622Z,8.76
2019-02-19T16:55:40.571Z,8.67
2019-02-19T16:58:30.116Z,8.62
2019-02-19T17:08:15.868Z,8.49
2019-02-19T17:14:32.777Z,8.60
2019-02-19T17:17:26.366Z,8.66
2019-02-19T17:20:28.839Z,8.69
2019-02-19T17:23:11.448Z,8.71
2019-02-19T17:29:29.307Z,8.73
2019-02-19T17:35:23.463Z,8.71
2019-02-19T17:41:33.099Z,8.90
2019-02-19T17:44:20.511Z,8.81
2019-02-19T17:47:08.781Z,8.75
2019-02-19T17:50:12.984Z,8.70
2019-02-19T17:53:11.488Z,8.65
2019-02-19T17:56:14.215Z,9.38
2019-02-19T17:59:03.937Z,8.76
2019-02-19T18:01:51.821Z,8.60
2019-02-19T18:04:39.470Z,8.50
2019-02-19T18:07:32.625Z,8.45
2019-02-19T18:10:40.092Z,8.38
2019-02-19T18:13:45.938Z,8.34
2019-02-19T18:16:32.964Z,8.29
2019-02-19T18:19:34.751Z,8.24
2019-02-19T18:25:28.250Z,8.14
2019-02-19T18:31:21.471Z,8.01
2019-02-19T18:34:11.194Z,7.92
2019-02-19T18:36:58.148Z,7.81
2019-02-19T18:42:52.042Z,7.64
2019-02-19T18:48:50.279Z,7.33
2019-02-19T18:54:44.018Z,7.07
2019-02-19T18:57:38.791Z,6.94
2019-02-19T19:00:26.087Z,6.80
2019-02-19T19:09:35.312Z,6.11
2019-02-19T19:12:22.530Z,6.03
2019-02-19T19:15:17.703Z,6.79
2019-02-19T19:21:11.762Z,6.34
2019-02-19T19:23:59.186Z,6.42
2019-02-19T19:26:47.632Z,6.51
2019-02-19T19:29:35.422Z,6.60
2019-02-19T19:32:23.083Z,6.68
2019-02-19T19:35:10.646Z,7.51
2019-02-19T19:38:12.504Z,7.13
2019-02-19T19:40:59.999Z,7.13
2019-02-19T19:43:47.452Z,7.18
2019-02-19T19:46:34.752Z,7.26
2019-02-19T19:55:33.975Z,7.40
2019-02-19T19:58:21.417Z,7.43
2019-02-19T20:01:09.336Z,8.11
2019-02-19T20:03:56.634Z,7.67
2019-02-19T20:06:43.553Z,7.59
2019-02-19T20:09:31.075Z,7.55
2019-02-19T20:15:24.445Z,7.41
2019-02-19T20:18:19.336Z,7.37
2019-02-19T20:21:07.078Z,7.33
2019-02-19T20:27:03.411Z,7.50
2019-02-19T20:29:50.968Z,7.42
2019-02-19T20:32:38.472Z,7.38
2019-02-19T20:35:25.472Z,7.35
2019-02-19T20:38:12.481Z,7.33
2019-02-19T20:40:59.805Z,7.30
2019-02-19T20:43:46.946Z,7.28
2019-02-19T20:46:34.457Z,7.26
2019-02-19T20:49:21.686Z,7.25
2019-02-19T21:10:47.747Z,7.24
2019-02-19T21:13:38.015Z,7.26
2019-02-19T21:22:37.659Z,7.39
2019-02-19T21:25:30.769Z,7.44
2019-02-19T21:28:11.999Z,7.48
2019-02-19T21:34:05.538Z,7.49
2019-02-19T21:36:53.191Z,7.51
2019-02-19T21:39:39.998Z,7.50
2019-02-19T21:48:38.862Z,7.53
2019-02-19T21:51:26.309Z,7.54
2019-02-19T21:54:14.549Z,7.54
2019-02-19T22:00:15.113Z,7.55
2019-02-19T22:03:01.982Z,7.55
2019-02-19T22:05:50.137Z,7.57
2019-02-19T22:08:37.488Z,7.58
2019-02-19T22:14:31.980Z,7.60
2019-02-19T22:17:19.069Z,7.59
2019-02-19T22:20:21.244Z,7.60
2019-02-19T22:23:08.391Z,7.57
2019-02-19T22:25:55.677Z,7.53
2019-02-19T22:28:42.810Z,7.49
2019-02-19T22:31:30.233Z,7.48
2019-02-19T22:34:17.640Z,8.20
2019-02-19T22:40:11.247Z,7.91
2019-02-19T22:43:06.431Z,7.84
2019-02-19T22:46:08.596Z,7.79
2019-02-19T22:52:02.665Z,7.73
2019-02-19T22:54:50.515Z,8.42
2019-02-19T22:57:37.743Z,7.90
2019-02-19T23:10:02.749Z,7.63
2019-02-19T23:12:50.189Z,7.45
2019-02-19T23:18:44.774Z,7.25
2019-02-19T23:21:33.730Z,7.16
2019-02-19T23:24:21.157Z,7.08
2019-02-19T23:27:08.373Z,7.78
2019-02-19T23:29:55.692Z,7.22
2019-02-19T23:32:42.816Z,7.07
2019-02-19T23:35:36.272Z,6.98
2019-02-19T23:38:24.518Z,6.93
2019-02-19T23:41:14.793Z,6.85
2019-02-19T23:44:02.434Z,6.75
2019-02-19T23:47:04.347Z,6.64
2019-02-19T23:49:51.928Z,6.55
2019-02-19T23:55:45.611Z,6.38
2019-02-19T23:58:33.235Z,6.30
